createdAt,value
2023-08-08T00:01:01.563Z,13.28
2023-08-08T00:03:30.314Z,13.34
2023-08-08T00:05:58.892Z,13.41
2023-08-08T00:08:27.449Z,13.42
2023-08-08T00:11:11.501Z,13.55
2023-08-08T00:13:40.456Z,13.56
2023-08-08T00:16:09.305Z,13.58
2023-08-08T00:18:38.016Z,13.53
2023-08-08T00:21:06.617Z,13.59
2023-08-08T00:23:35.132Z,13.56
2023-08-08T00:26:03.735Z,13.66
2023-08-08T00:28:33.629Z,13.67
2023-08-08T00:31:02.563Z,13.63
2023-08-08T00:33:33.295Z,13.65
2023-08-08T00:36:01.807Z,13.71
2023-08-08T00:38:34.544Z,13.68
2023-08-08T00:41:05.837Z,13.76
2023-08-08T00:43:51.247Z,13.80
2023-08-08T00:46:23.414Z,13.77
2023-08-08T00:48:52.586Z,13.82
2023-08-08T00:51:23.330Z,13.80
2023-08-08T00:53:52.147Z,13.73
2023-08-08T00:56:21.393Z,13.79
2023-08-08T00:58:51.949Z,13.79
2023-08-08T01:01:21.253Z,13.78
2023-08-08T01:03:50.819Z,13.77
2023-08-08T01:06:26.045Z,13.72
2023-08-08T01:09:00.399Z,13.71
2023-08-08T01:11:31.924Z,13.69
2023-08-08T01:14:03.095Z,13.74
2023-08-08T01:16:32.308Z,13.65
2023-08-08T01:19:01.212Z,13.61
2023-08-08T01:21:31.745Z,13.64
2023-08-08T01:24:16.029Z,13.62
2023-08-08T01:26:44.948Z,13.61
2023-08-08T01:29:13.446Z,13.53
2023-08-08T01:31:42.118Z,13.49
2023-08-08T01:34:10.798Z,13.49
2023-08-08T01:36:47.154Z,13.58
2023-08-08T01:39:22.125Z,13.51
2023-08-08T01:41:52.350Z,13.48
2023-08-08T01:44:21.794Z,13.36
2023-08-08T01:46:50.335Z,13.19
2023-08-08T01:49:18.837Z,13.03
2023-08-08T01:51:47.566Z,13.14
2023-08-08T01:54:17.567Z,13.02
2023-08-08T01:56:46.029Z,12.95
2023-08-08T01:59:16.023Z,12.97
2023-08-08T02:01:44.881Z,13.01
2023-08-08T02:04:13.378Z,13.00
2023-08-08T02:06:41.945Z,13.14
2023-08-08T02:09:10.437Z,13.22
2023-08-08T02:11:40.415Z,13.36
2023-08-08T02:14:09.420Z,13.29
2023-08-08T02:16:37.958Z,13.23
2023-08-08T02:19:06.590Z,13.18
2023-08-08T02:21:35.246Z,13.14
2023-08-08T02:24:04.038Z,13.20
2023-08-08T02:26:32.785Z,13.24
2023-08-08T02:29:02.665Z,13.35
2023-08-08T02:31:31.296Z,13.35
2023-08-08T02:33:59.870Z,13.41
2023-08-08T02:36:28.382Z,13.45
2023-08-08T02:38:56.892Z,13.53
2023-08-08T02:41:25.371Z,13.52
2023-08-08T02:43:54.018Z,13.57
2023-08-08T02:46:23.900Z,13.58
2023-08-08T02:48:52.514Z,13.57
2023-08-08T02:51:32.658Z,13.56
2023-08-08T02:54:01.197Z,13.59
2023-08-08T02:56:29.606Z,13.66
2023-08-08T02:58:59.238Z,13.65
2023-08-08T03:01:29.124Z,13.65
2023-08-08T03:03:57.728Z,13.70
2023-08-08T03:06:26.340Z,13.69
2023-08-08T03:08:54.833Z,13.68
2023-08-08T03:11:23.402Z,13.52
2023-08-08T03:13:51.896Z,13.21
2023-08-08T03:16:20.605Z,12.95
2023-08-08T03:18:50.424Z,12.71
2023-08-08T03:21:18.926Z,12.59
2023-08-08T03:24:11.464Z,12.47
2023-08-08T03:26:40.122Z,12.32
2023-08-08T03:29:11.133Z,12.36
2023-08-08T03:31:39.910Z,12.30
2023-08-08T03:34:09.851Z,12.18
2023-08-08T03:36:39.920Z,12.05
2023-08-08T03:39:12.401Z,12.04
2023-08-08T03:41:40.922Z,12.06
2023-08-08T03:44:09.386Z,12.02
2023-08-08T03:46:37.951Z,12.00
2023-08-08T03:49:06.538Z,12.07
2023-08-08T03:51:36.420Z,12.03
2023-08-08T03:54:20.554Z,12.05
2023-08-08T03:56:49.132Z,12.03
2023-08-08T03:59:25.695Z,12.00
2023-08-08T04:01:54.282Z,12.10
2023-08-08T04:04:22.771Z,12.11
2023-08-08T04:06:52.592Z,12.04
2023-08-08T04:09:21.076Z,12.12
2023-08-08T04:11:49.796Z,12.11
2023-08-08T04:14:18.416Z,12.14
2023-08-08T04:16:46.978Z,12.21
2023-08-08T04:19:15.454Z,12.25
2023-08-08T04:21:43.978Z,12.21
2023-08-08T04:24:14.057Z,12.26
2023-08-08T04:26:42.754Z,12.23
2023-08-08T04:29:11.244Z,12.21
2023-08-08T04:31:39.802Z,12.23
2023-08-08T04:34:08.266Z,12.27
2023-08-08T04:36:51.051Z,12.29
2023-08-08T04:39:21.069Z,12.31
2023-08-08T04:41:49.591Z,12.40
2023-08-08T04:44:18.034Z,12.34
2023-08-08T04:46:46.512Z,12.41
2023-08-08T04:49:29.944Z,12.36
2023-08-08T04:51:58.788Z,12.46
2023-08-08T04:54:28.865Z,12.40
2023-08-08T04:56:57.522Z,12.46
2023-08-08T04:59:26.185Z,12.47
2023-08-08T05:01:54.658Z,12.48
2023-08-08T05:04:23.320Z,12.48
2023-08-08T05:06:53.082Z,12.54
2023-08-08T05:09:21.826Z,12.51
2023-08-08T05:11:52.022Z,12.58
2023-08-08T05:14:21.885Z,12.57
2023-08-08T05:16:50.481Z,12.55
2023-08-08T05:19:19.030Z,12.64
2023-08-08T05:21:47.963Z,12.66
2023-08-08T05:24:17.140Z,12.70
2023-08-08T05:26:45.788Z,12.78
2023-08-08T05:29:15.625Z,12.73
2023-08-08T05:31:44.181Z,12.76
2023-08-08T05:34:12.799Z,12.82
2023-08-08T05:36:41.332Z,12.93
2023-08-08T05:39:10.726Z,12.99
2023-08-08T05:41:39.197Z,12.99
2023-08-08T05:44:07.716Z,13.08
2023-08-08T05:46:39.797Z,13.05
2023-08-08T05:49:09.195Z,13.08
2023-08-08T05:51:37.771Z,13.17
2023-08-08T05:54:06.920Z,13.15
2023-08-08T05:56:38.686Z,13.20
2023-08-08T05:59:07.520Z,13.25
2023-08-08T06:01:37.286Z,13.27
2023-08-08T06:04:29.170Z,13.39
2023-08-08T06:06:57.810Z,13.42
2023-08-08T06:09:26.986Z,13.54
2023-08-08T06:11:55.570Z,13.61
2023-08-08T06:14:24.245Z,13.55
2023-08-08T06:16:52.738Z,13.52
2023-08-08T06:19:21.301Z,13.62
2023-08-08T06:21:51.388Z,13.66
2023-08-08T06:24:19.939Z,13.72
2023-08-08T06:26:48.505Z,13.71
2023-08-08T06:29:18.448Z,13.54
2023-08-08T06:31:51.763Z,13.61
2023-08-08T06:34:20.468Z,13.75
2023-08-08T06:36:49.190Z,13.76
2023-08-08T06:39:20.545Z,13.78
2023-08-08T06:41:49.326Z,13.79
2023-08-08T06:44:17.897Z,13.99
2023-08-08T06:46:46.412Z,14.10
2023-08-08T06:49:15.240Z,14.31
2023-08-08T06:52:03.831Z,14.38
2023-08-08T06:54:33.983Z,14.37
2023-08-08T06:57:03.166Z,14.49
2023-08-08T06:59:32.094Z,14.42
2023-08-08T07:02:00.655Z,14.52
2023-08-08T07:04:29.188Z,14.51
2023-08-08T07:06:57.812Z,14.47
2023-08-08T07:09:26.705Z,14.53
2023-08-08T07:11:56.657Z,14.62
2023-08-08T07:14:25.259Z,15.09
2023-08-08T07:16:54.517Z,15.25
2023-08-08T07:19:23.144Z,15.39
2023-08-08T07:21:51.645Z,15.47
2023-08-08T07:24:21.396Z,15.56
2023-08-08T07:26:49.855Z,15.56
2023-08-08T07:29:19.966Z,15.32
2023-08-08T07:31:48.525Z,15.33
2023-08-08T07:34:17.352Z,15.87
2023-08-08T07:36:46.555Z,16.35
2023-08-08T07:39:15.995Z,16.82
2023-08-08T07:41:44.518Z,17.07
2023-08-08T07:44:13.040Z,17.28
2023-08-08T07:46:43.420Z,17.36
2023-08-08T07:49:11.989Z,17.34
2023-08-08T07:51:40.617Z,17.83
2023-08-08T07:54:09.742Z,18.31
2023-08-08T07:56:38.600Z,19.12
2023-08-08T07:59:07.415Z,19.74
2023-08-08T08:01:36.524Z,20.19
2023-08-08T08:04:06.532Z,21.17
2023-08-08T08:06:35.185Z,21.56
2023-08-08T08:09:04.501Z,21.77
2023-08-08T08:11:33.367Z,20.62
2023-08-08T08:14:01.974Z,21.16
2023-08-08T08:16:30.688Z,21.19
2023-08-08T08:18:59.690Z,21.40
2023-08-08T08:21:29.656Z,20.73
2023-08-08T08:23:58.130Z,20.42
2023-08-08T08:26:37.573Z,19.91
2023-08-08T08:29:06.414Z,19.86
2023-08-08T08:31:35.026Z,19.22
2023-08-08T08:34:03.682Z,18.30
2023-08-08T08:36:33.708Z,18.02
2023-08-08T08:39:02.307Z,18.02
2023-08-08T08:41:34.599Z,19.04
2023-08-08T08:44:03.472Z,20.55
2023-08-08T08:46:32.599Z,21.22
2023-08-08T08:49:01.840Z,21.08
2023-08-08T08:51:30.982Z,21.00
2023-08-08T08:54:01.111Z,20.82
2023-08-08T08:56:29.776Z,21.79
2023-08-08T08:58:58.626Z,22.57
2023-08-08T09:01:28.370Z,22.21
2023-08-08T09:03:57.216Z,21.81
2023-08-08T09:06:26.595Z,21.83
2023-08-08T09:09:03.122Z,22.99
2023-08-08T09:11:37.464Z,23.35
2023-08-08T09:14:06.117Z,22.38
2023-08-08T09:16:34.803Z,22.02
2023-08-08T09:19:04.493Z,22.25
2023-08-08T09:21:33.177Z,21.23
2023-08-08T09:24:01.832Z,20.90
2023-08-08T09:26:30.530Z,20.71
2023-08-08T09:29:16.306Z,20.51
2023-08-08T09:31:45.290Z,20.26
2023-08-08T09:34:13.859Z,19.55
2023-08-08T09:36:42.721Z,18.75
2023-08-08T09:39:11.636Z,18.85
2023-08-08T09:41:41.040Z,19.48
2023-08-08T09:44:10.459Z,20.98
2023-08-08T09:46:41.268Z,23.47
2023-08-08T09:49:12.367Z,22.68
2023-08-08T09:51:41.421Z,21.85
2023-08-08T09:54:10.888Z,20.89
2023-08-08T09:56:41.457Z,19.97
2023-08-08T09:59:12.311Z,18.99
2023-08-08T10:01:43.728Z,18.49
2023-08-08T10:04:14.314Z,18.08
2023-08-08T10:06:42.837Z,17.69
2023-08-08T10:09:11.421Z,17.56
2023-08-08T10:11:40.014Z,17.48
2023-08-08T10:14:32.267Z,17.54
2023-08-08T10:17:05.266Z,17.43
2023-08-08T10:19:34.970Z,17.31
2023-08-08T10:22:06.715Z,17.06
2023-08-08T10:24:37.278Z,16.77
2023-08-08T10:27:06.571Z,16.51
2023-08-08T10:29:35.994Z,16.29
2023-08-08T10:32:08.620Z,16.26
2023-08-08T10:34:41.674Z,16.33
2023-08-08T10:37:12.725Z,16.77
2023-08-08T10:39:52.990Z,19.60
2023-08-08T10:42:24.280Z,20.15
2023-08-08T10:44:54.645Z,19.77
2023-08-08T10:47:28.329Z,19.08
2023-08-08T10:50:01.824Z,18.37
2023-08-08T10:52:31.332Z,17.97
2023-08-08T10:55:00.170Z,17.47
2023-08-08T10:57:29.422Z,17.35
2023-08-08T10:59:57.970Z,17.21
2023-08-08T11:02:28.137Z,17.20
2023-08-08T11:04:58.222Z,17.45
2023-08-08T11:07:29.840Z,18.50
2023-08-08T11:10:05.521Z,19.62
2023-08-08T11:12:34.219Z,21.39
2023-08-08T11:15:03.030Z,24.17
2023-08-08T11:17:34.320Z,26.12
2023-08-08T11:20:17.170Z,28.29
2023-08-08T11:22:45.871Z,28.97
2023-08-08T11:25:16.854Z,30.68
2023-08-08T11:27:51.338Z,29.21
2023-08-08T11:30:20.549Z,26.50
2023-08-08T11:35:25.558Z,21.97
2023-08-08T11:37:55.930Z,20.76
2023-08-08T11:40:25.867Z,19.44
2023-08-08T11:42:55.590Z,18.66
2023-08-08T11:45:24.648Z,18.22
2023-08-08T11:47:56.076Z,17.95
2023-08-08T11:50:28.413Z,17.98
2023-08-08T11:52:57.935Z,18.27
2023-08-08T11:55:30.451Z,18.73
2023-08-08T11:58:00.696Z,19.34
2023-08-08T12:00:31.363Z,20.31
2023-08-08T12:03:05.351Z,21.14
2023-08-08T12:05:39.688Z,23.37
2023-08-08T12:08:10.231Z,27.33
2023-08-08T12:10:41.237Z,29.92
2023-08-08T12:13:12.950Z,30.73
2023-08-08T12:15:50.189Z,30.85
2023-08-08T12:18:21.625Z,30.25
2023-08-08T12:20:50.164Z,28.11
2023-08-08T12:23:18.796Z,26.01
2023-08-08T12:25:48.450Z,24.42
2023-08-08T12:28:16.992Z,23.71
2023-08-08T12:30:45.697Z,25.17
2023-08-08T12:33:14.385Z,24.83
2023-08-08T12:35:44.373Z,24.45
2023-08-08T12:38:12.973Z,25.76
2023-08-08T12:40:44.332Z,24.33
2023-08-08T12:43:18.100Z,25.11
2023-08-08T12:45:47.113Z,26.32
2023-08-08T12:48:15.867Z,24.54
2023-08-08T12:50:45.813Z,23.69
2023-08-08T12:53:14.709Z,22.33
2023-08-08T12:55:43.207Z,23.41
2023-08-08T12:58:11.758Z,26.88
2023-08-08T13:00:41.071Z,29.89
2023-08-08T13:03:10.609Z,30.44
2023-08-08T13:05:40.026Z,30.15
2023-08-08T13:08:10.364Z,28.66
2023-08-08T13:10:39.474Z,27.65
2023-08-08T13:13:08.422Z,25.79
2023-08-08T13:15:37.598Z,24.40
2023-08-08T13:18:06.931Z,23.05
2023-08-08T13:20:37.829Z,23.45
2023-08-08T13:23:06.695Z,24.12
2023-08-08T13:25:36.536Z,24.04
2023-08-08T13:28:05.391Z,23.27
2023-08-08T13:30:35.002Z,23.08
2023-08-08T13:33:03.770Z,23.17
2023-08-08T13:35:32.371Z,23.74
2023-08-08T13:38:01.005Z,23.57
2023-08-08T13:40:29.614Z,23.23
2023-08-08T13:42:59.764Z,22.83
2023-08-08T13:45:28.405Z,22.96
2023-08-08T13:47:56.943Z,23.08
2023-08-08T13:50:27.372Z,23.13
2023-08-08T13:52:59.540Z,23.34
2023-08-08T13:55:28.935Z,23.55
2023-08-08T13:57:59.414Z,23.72
2023-08-08T14:00:28.657Z,23.80
2023-08-08T14:03:00.897Z,24.65
2023-08-08T14:05:29.988Z,24.44
2023-08-08T14:08:05.586Z,24.84
2023-08-08T14:10:35.899Z,25.16
2023-08-08T14:13:10.080Z,23.74
2023-08-08T14:15:40.629Z,23.48
2023-08-08T14:18:09.760Z,22.95
2023-08-08T14:20:42.217Z,22.12
2023-08-08T14:23:11.826Z,21.82
2023-08-08T14:25:40.493Z,21.49
2023-08-08T14:28:10.522Z,20.98
2023-08-08T14:30:39.098Z,20.69
2023-08-08T14:33:07.949Z,20.79
2023-08-08T14:35:37.431Z,22.74
2023-08-08T14:38:07.251Z,24.19
2023-08-08T14:40:43.973Z,23.72
2023-08-08T14:43:14.906Z,23.89
2023-08-08T14:45:43.745Z,23.75
2023-08-08T14:48:17.658Z,22.54
2023-08-08T14:50:46.524Z,22.27
2023-08-08T14:53:17.505Z,21.99
2023-08-08T14:55:46.976Z,22.05
2023-08-08T14:58:19.561Z,22.88
2023-08-08T15:00:49.290Z,23.12
2023-08-08T15:03:19.888Z,23.00
2023-08-08T15:05:49.865Z,22.31
2023-08-08T15:08:19.182Z,22.65
2023-08-08T15:10:51.468Z,22.64
2023-08-08T15:13:22.658Z,22.62
2023-08-08T15:15:51.249Z,22.61
2023-08-08T15:18:19.751Z,22.55
2023-08-08T15:20:48.374Z,22.74
2023-08-08T15:23:17.293Z,22.53
2023-08-08T15:26:01.696Z,22.71
2023-08-08T15:28:32.486Z,22.65
2023-08-08T15:31:00.998Z,22.64
2023-08-08T15:33:32.794Z,22.70
2023-08-08T15:38:32.115Z,22.31
2023-08-08T15:41:01.647Z,22.24
2023-08-08T15:43:31.309Z,22.08
2023-08-08T15:46:02.830Z,21.28
2023-08-08T15:48:32.395Z,21.22
2023-08-08T15:51:01.326Z,21.19
2023-08-08T15:53:31.214Z,21.33
2023-08-08T15:56:00.179Z,21.31
2023-08-08T15:58:32.783Z,21.40
2023-08-08T16:01:04.621Z,21.46
2023-08-08T16:03:38.762Z,21.34
2023-08-08T16:06:09.257Z,21.08
2023-08-08T16:08:39.012Z,20.80
2023-08-08T16:11:11.222Z,20.79
2023-08-08T16:13:42.113Z,20.93
2023-08-08T16:16:12.514Z,21.06
2023-08-08T16:18:42.618Z,20.92
2023-08-08T16:21:16.164Z,20.82
2023-08-08T16:23:50.720Z,20.65
2023-08-08T16:26:22.508Z,20.88
2023-08-08T16:28:54.768Z,20.65
2023-08-08T16:31:35.836Z,20.71
2023-08-08T16:34:18.408Z,20.51
2023-08-08T16:36:49.661Z,20.46
2023-08-08T16:39:20.260Z,20.19
2023-08-08T16:41:51.255Z,20.02
2023-08-08T16:44:22.166Z,19.97
2023-08-08T16:46:59.462Z,20.10
2023-08-08T16:49:35.252Z,20.23
2023-08-08T16:52:10.932Z,20.19
2023-08-08T16:54:41.381Z,20.12
2023-08-08T16:57:18.322Z,20.17
2023-08-08T16:59:48.299Z,20.00
2023-08-08T17:02:19.652Z,19.79
2023-08-08T17:04:54.506Z,19.69
2023-08-08T17:07:26.986Z,19.60
2023-08-08T17:09:57.917Z,19.56
2023-08-08T17:12:27.946Z,19.47
2023-08-08T17:15:00.968Z,19.39
2023-08-08T17:17:35.554Z,19.26
2023-08-08T17:20:10.935Z,19.23
2023-08-08T17:22:43.414Z,19.13
2023-08-08T17:25:16.618Z,19.13
2023-08-08T17:27:51.707Z,19.13
2023-08-08T17:30:23.370Z,19.04
2023-08-08T17:33:00.090Z,19.05
2023-08-08T17:35:31.094Z,19.16
2023-08-08T17:37:59.680Z,19.12
2023-08-08T17:40:32.204Z,19.11
2023-08-08T17:43:05.432Z,19.09
2023-08-08T17:45:34.984Z,19.09
2023-08-08T17:48:13.018Z,19.08
2023-08-08T17:50:43.609Z,19.07
2023-08-08T17:53:14.633Z,19.03
2023-08-08T17:55:44.237Z,18.95
2023-08-08T17:58:13.108Z,18.82
2023-08-08T18:00:41.666Z,18.74
2023-08-08T18:03:11.637Z,18.62
2023-08-08T18:05:40.853Z,18.52
2023-08-08T18:08:09.431Z,18.49
2023-08-08T18:10:38.157Z,18.49
2023-08-08T18:13:06.843Z,18.42
2023-08-08T18:15:35.787Z,18.41
2023-08-08T18:18:05.982Z,18.36
2023-08-08T18:20:36.223Z,18.31
2023-08-08T18:23:05.480Z,18.24
2023-08-08T18:25:33.987Z,18.13
2023-08-08T18:28:04.152Z,17.99
2023-08-08T18:30:32.631Z,17.98
2023-08-08T18:33:01.197Z,17.89
2023-08-08T18:35:29.775Z,17.82
2023-08-08T18:38:00.490Z,17.71
2023-08-08T18:40:29.354Z,17.58
2023-08-08T18:42:58.001Z,17.51
2023-08-08T18:45:31.025Z,17.45
2023-08-08T18:48:03.083Z,17.31
2023-08-08T18:50:33.616Z,17.20
2023-08-08T18:53:07.551Z,17.15
2023-08-08T18:55:38.263Z,17.09
2023-08-08T18:58:12.057Z,17.06
2023-08-08T19:00:42.933Z,17.08
2023-08-08T19:03:23.677Z,16.93
2023-08-08T19:05:53.795Z,16.88
2023-08-08T19:08:27.740Z,16.92
2023-08-08T19:11:03.922Z,16.84
2023-08-08T19:13:36.204Z,16.79
2023-08-08T19:16:07.288Z,16.74
2023-08-08T19:18:37.930Z,16.64
2023-08-08T19:21:07.418Z,16.60
2023-08-08T19:23:42.786Z,16.70
2023-08-08T19:26:11.954Z,16.54
2023-08-08T19:28:42.689Z,16.44
2023-08-08T19:31:14.192Z,16.25
2023-08-08T19:33:59.692Z,16.07
2023-08-08T19:36:35.339Z,15.92
2023-08-08T19:39:07.914Z,15.85
2023-08-08T19:41:38.153Z,15.63
2023-08-08T19:44:10.161Z,15.39
2023-08-08T19:46:41.676Z,15.22
2023-08-08T19:49:12.393Z,15.11
2023-08-08T19:51:46.029Z,14.98
2023-08-08T19:54:20.529Z,14.92
2023-08-08T19:56:50.069Z,14.94
2023-08-08T19:59:18.670Z,15.00
2023-08-08T20:01:52.667Z,15.04
2023-08-08T20:04:22.605Z,15.07
2023-08-08T20:06:51.943Z,15.03
2023-08-08T20:09:23.154Z,15.08
2023-08-08T20:11:51.925Z,15.05
2023-08-08T20:14:20.437Z,14.93
2023-08-08T20:16:49.783Z,14.76
2023-08-08T20:19:19.308Z,14.64
2023-08-08T20:21:48.110Z,14.52
2023-08-08T20:24:17.461Z,14.39
2023-08-08T20:26:49.455Z,14.38
2023-08-08T20:29:19.686Z,14.29
2023-08-08T20:31:49.620Z,14.29
2023-08-08T20:34:43.737Z,14.23
2023-08-08T20:37:16.775Z,14.23
2023-08-08T20:39:48.769Z,14.13
2023-08-08T20:42:20.547Z,14.13
2023-08-08T20:44:53.704Z,14.08
2023-08-08T20:47:23.972Z,14.00
2023-08-08T20:49:54.846Z,13.95
2023-08-08T20:52:25.004Z,13.90
2023-08-08T20:54:54.292Z,13.93
2023-08-08T20:57:25.686Z,13.93
2023-08-08T20:59:55.876Z,13.87
2023-08-08T21:02:28.203Z,13.80
2023-08-08T21:05:00.530Z,13.80
2023-08-08T21:07:34.465Z,13.80
2023-08-08T21:10:05.446Z,13.85
2023-08-08T21:12:40.190Z,13.79
2023-08-08T21:15:10.538Z,13.66
2023-08-08T21:17:44.383Z,13.67
2023-08-08T21:20:14.446Z,13.77
2023-08-08T21:22:51.624Z,13.72
2023-08-08T21:25:30.285Z,13.75
2023-08-08T21:28:02.177Z,13.65
2023-08-08T21:30:36.786Z,13.54
2023-08-08T21:33:06.991Z,13.48
2023-08-08T21:35:39.796Z,13.43
2023-08-08T21:38:11.732Z,13.38
2023-08-08T21:40:42.154Z,13.33
2023-08-08T21:46:01.760Z,13.43
2023-08-08T21:48:30.884Z,13.46
2023-08-08T21:51:01.215Z,13.50
2023-08-08T21:53:30.251Z,13.47
2023-08-08T21:55:59.109Z,13.43
2023-08-08T21:58:27.690Z,13.47
2023-08-08T22:00:56.335Z,13.48
2023-08-08T22:03:26.922Z,13.60
2023-08-08T22:05:55.554Z,13.74
2023-08-08T22:08:24.099Z,13.59
2023-08-08T22:10:52.814Z,13.54
2023-08-08T22:13:21.981Z,13.54
2023-08-08T22:15:50.780Z,13.62
2023-08-08T22:18:20.947Z,13.61
2023-08-08T22:20:51.187Z,13.60
2023-08-08T22:23:21.409Z,13.61
2023-08-08T22:25:51.087Z,13.57
2023-08-08T22:28:21.099Z,13.59
2023-08-08T22:30:53.009Z,13.58
2023-08-08T22:33:22.505Z,13.54
2023-08-08T22:35:52.440Z,13.57
2023-08-08T22:38:20.966Z,13.55
2023-08-08T22:40:49.473Z,13.52
2023-08-08T22:43:18.019Z,13.55
2023-08-08T22:45:46.739Z,13.53
2023-08-08T22:48:15.414Z,13.51
2023-08-08T22:50:45.288Z,13.52
2023-08-08T22:53:15.362Z,13.57
2023-08-08T22:55:43.918Z,13.50
2023-08-08T22:58:14.108Z,13.50
2023-08-08T23:00:42.795Z,13.52
2023-08-08T23:03:12.062Z,13.54
2023-08-08T23:06:06.184Z,13.48
2023-08-08T23:08:36.273Z,13.48
2023-08-08T23:11:05.059Z,13.41
2023-08-08T23:13:33.640Z,13.36
2023-08-08T23:16:02.262Z,13.39
2023-08-08T23:18:30.862Z,13.37
2023-08-08T23:20:59.521Z,13.41
2023-08-08T23:23:47.707Z,13.43
2023-08-08T23:26:16.717Z,13.46
2023-08-08T23:28:45.466Z,13.41
2023-08-08T23:31:14.181Z,13.38
2023-08-08T23:33:44.692Z,13.37
2023-08-08T23:36:13.447Z,13.32
2023-08-08T23:38:43.009Z,13.39
2023-08-08T23:41:13.010Z,13.34
2023-08-08T23:43:44.149Z,13.36
2023-08-08T23:46:13.441Z,13.38
2023-08-08T23:48:42.634Z,13.39
2023-08-08T23:51:11.139Z,13.32
2023-08-08T23:53:39.696Z,13.28
2023-08-08T23:56:08.596Z,13.21
2023-08-08T23:58:38.623Z,13.20
